sensor_id;sensor_type;location;lat;lon;timestamp;P1;durP1;ratioP1;P2;durP2;ratioP2
77350;SDS011;66420;50.246;14.320;2023-10-19T00:02:32;13.20;;;6.80;;
77350;SDS011;66420;50.246;14.320;2023-10-19T00:05:18;17.20;;;7.30;;
77350;SDS011;66420;50.246;14.320;2023-10-19T00:08:05;15.20;;;6.97;;
77350;SDS011;66420;50.246;14.320;2023-10-19T00:11:02;14.00;;;6.60;;
77350;SDS011;66420;50.246;14.320;2023-10-19T00:13:49;12.15;;;6.32;;
77350;SDS011;66420;50.246;14.320;2023-10-19T00:16:34;14.25;;;7.22;;
77350;SDS011;66420;50.246;14.320;2023-10-19T00:19:20;13.35;;;6.65;;
77350;SDS011;66420;50.246;14.320;2023-10-19T00:22:05;16.55;;;7.38;;
77350;SDS011;66420;50.246;14.320;2023-10-19T00:24:53;11.95;;;6.80;;
77350;SDS011;66420;50.246;14.320;2023-10-19T00:27:38;13.02;;;6.28;;
77350;SDS011;66420;50.246;14.320;2023-10-19T00:30:24;10.52;;;6.60;;
77350;SDS011;66420;50.246;14.320;2023-10-19T00:33:14;13.23;;;6.43;;
77350;SDS011;66420;50.246;14.320;2023-10-19T00:36:06;12.65;;;6.25;;
77350;SDS011;66420;50.246;14.320;2023-10-19T00:38:57;12.05;;;6.93;;
77350;SDS011;66420;50.246;14.320;2023-10-19T00:41:44;12.00;;;6.32;;
77350;SDS011;66420;50.246;14.320;2023-10-19T00:44:29;11.32;;;6.15;;
77350;SDS011;66420;50.246;14.320;2023-10-19T00:47:25;14.43;;;6.80;;
77350;SDS011;66420;50.246;14.320;2023-10-19T00:50:14;13.45;;;6.68;;
77350;SDS011;66420;50.246;14.320;2023-10-19T00:53:01;13.20;;;6.75;;
77350;SDS011;66420;50.246;14.320;2023-10-19T00:55:51;13.13;;;6.93;;
77350;SDS011;66420;50.246;14.320;2023-10-19T00:58:37;13.48;;;7.55;;
77350;SDS011;66420;50.246;14.320;2023-10-19T01:01:29;14.65;;;6.93;;
77350;SDS011;66420;50.246;14.320;2023-10-19T01:04:14;11.45;;;6.68;;
77350;SDS011;66420;50.246;14.320;2023-10-19T01:07:07;11.32;;;6.40;;
77350;SDS011;66420;50.246;14.320;2023-10-19T01:10:06;13.02;;;7.50;;
77350;SDS011;66420;50.246;14.320;2023-10-19T01:12:52;12.18;;;6.90;;
77350;SDS011;66420;50.246;14.320;2023-10-19T01:15:37;16.17;;;7.88;;
77350;SDS011;66420;50.246;14.320;2023-10-19T01:18:23;14.60;;;7.13;;
77350;SDS011;66420;50.246;14.320;2023-10-19T01:21:13;14.77;;;7.10;;
77350;SDS011;66420;50.246;14.320;2023-10-19T01:23:58;13.73;;;6.80;;
77350;SDS011;66420;50.246;14.320;2023-10-19T01:26:43;11.48;;;6.80;;
77350;SDS011;66420;50.246;14.320;2023-10-19T01:29:30;12.52;;;6.70;;
77350;SDS011;66420;50.246;14.320;2023-10-19T01:32:15;14.00;;;6.65;;
77350;SDS011;66420;50.246;14.320;2023-10-19T01:35:00;12.70;;;6.65;;
77350;SDS011;66420;50.246;14.320;2023-10-19T01:37:45;13.95;;;7.50;;
77350;SDS011;66420;50.246;14.320;2023-10-19T01:40:30;12.52;;;6.78;;
77350;SDS011;66420;50.246;14.320;2023-10-19T01:43:14;12.52;;;7.00;;
77350;SDS011;66420;50.246;14.320;2023-10-19T01:46:05;14.10;;;7.38;;
77350;SDS011;66420;50.246;14.320;2023-10-19T01:48:55;13.02;;;6.63;;
77350;SDS011;66420;50.246;14.320;2023-10-19T01:51:41;10.90;;;6.65;;
77350;SDS011;66420;50.246;14.320;2023-10-19T01:54:28;16.85;;;6.88;;
77350;SDS011;66420;50.246;14.320;2023-10-19T01:57:13;12.38;;;6.80;;
77350;SDS011;66420;50.246;14.320;2023-10-19T01:59:59;11.88;;;7.10;;
77350;SDS011;66420;50.246;14.320;2023-10-19T02:02:43;11.43;;;5.90;;
77350;SDS011;66420;50.246;14.320;2023-10-19T02:05:28;11.45;;;6.53;;
77350;SDS011;66420;50.246;14.320;2023-10-19T02:08:23;13.23;;;7.38;;
77350;SDS011;66420;50.246;14.320;2023-10-19T02:11:10;11.13;;;6.32;;
77350;SDS011;66420;50.246;14.320;2023-10-19T02:14:02;12.15;;;6.60;;
77350;SDS011;66420;50.246;14.320;2023-10-19T02:16:50;14.88;;;6.82;;
77350;SDS011;66420;50.246;14.320;2023-10-19T02:19:36;12.05;;;7.00;;
77350;SDS011;66420;50.246;14.320;2023-10-19T02:22:21;16.23;;;7.55;;
77350;SDS011;66420;50.246;14.320;2023-10-19T02:25:05;13.32;;;6.82;;
77350;SDS011;66420;50.246;14.320;2023-10-19T02:27:50;13.45;;;7.70;;
77350;SDS011;66420;50.246;14.320;2023-10-19T02:30:36;13.63;;;7.70;;
77350;SDS011;66420;50.246;14.320;2023-10-19T02:33:24;15.30;;;7.28;;
77350;SDS011;66420;50.246;14.320;2023-10-19T02:36:14;13.70;;;7.28;;
77350;SDS011;66420;50.246;14.320;2023-10-19T02:39:00;15.90;;;8.00;;
77350;SDS011;66420;50.246;14.320;2023-10-19T02:41:52;13.32;;;7.45;;
77350;SDS011;66420;50.246;14.320;2023-10-19T02:44:38;12.88;;;6.93;;
77350;SDS011;66420;50.246;14.320;2023-10-19T02:47:23;19.33;;;9.35;;
77350;SDS011;66420;50.246;14.320;2023-10-19T02:50:08;18.15;;;8.90;;
77350;SDS011;66420;50.246;14.320;2023-10-19T02:52:57;17.77;;;8.27;;
77350;SDS011;66420;50.246;14.320;2023-10-19T02:55:43;14.85;;;8.40;;
77350;SDS011;66420;50.246;14.320;2023-10-19T02:58:27;14.10;;;8.80;;
77350;SDS011;66420;50.246;14.320;2023-10-19T03:01:13;20.75;;;8.52;;
77350;SDS011;66420;50.246;14.320;2023-10-19T03:04:03;19.65;;;8.60;;
77350;SDS011;66420;50.246;14.320;2023-10-19T03:06:48;14.27;;;7.97;;
77350;SDS011;66420;50.246;14.320;2023-10-19T03:09:33;20.20;;;8.32;;
77350;SDS011;66420;50.246;14.320;2023-10-19T03:12:21;15.85;;;9.05;;
77350;SDS011;66420;50.246;14.320;2023-10-19T03:15:09;16.58;;;8.38;;
77350;SDS011;66420;50.246;14.320;2023-10-19T03:17:58;15.88;;;8.38;;
77350;SDS011;66420;50.246;14.320;2023-10-19T03:20:42;13.80;;;8.32;;
77350;SDS011;66420;50.246;14.320;2023-10-19T03:23:28;17.55;;;8.77;;
77350;SDS011;66420;50.246;14.320;2023-10-19T03:26:12;17.25;;;9.27;;
77350;SDS011;66420;50.246;14.320;2023-10-19T03:29:15;25.33;;;11.82;;
77350;SDS011;66420;50.246;14.320;2023-10-19T03:32:10;30.95;;;13.07;;
77350;SDS011;66420;50.246;14.320;2023-10-19T03:34:55;27.17;;;13.20;;
77350;SDS011;66420;50.246;14.320;2023-10-19T03:37:40;20.92;;;10.02;;
77350;SDS011;66420;50.246;14.320;2023-10-19T03:40:26;18.33;;;10.10;;
77350;SDS011;66420;50.246;14.320;2023-10-19T03:43:17;17.40;;;9.45;;
77350;SDS011;66420;50.246;14.320;2023-10-19T03:46:06;18.02;;;9.77;;
77350;SDS011;66420;50.246;14.320;2023-10-19T03:49:11;15.30;;;9.05;;
77350;SDS011;66420;50.246;14.320;2023-10-19T03:51:56;17.05;;;9.48;;
77350;SDS011;66420;50.246;14.320;2023-10-19T03:54:47;14.43;;;9.27;;
77350;SDS011;66420;50.246;14.320;2023-10-19T03:57:32;19.15;;;9.70;;
77350;SDS011;66420;50.246;14.320;2023-10-19T04:00:19;18.50;;;8.85;;
77350;SDS011;66420;50.246;14.320;2023-10-19T04:03:08;21.33;;;11.10;;
77350;SDS011;66420;50.246;14.320;2023-10-19T04:05:54;19.75;;;9.65;;
77350;SDS011;66420;50.246;14.320;2023-10-19T04:08:39;14.63;;;7.95;;
77350;SDS011;66420;50.246;14.320;2023-10-19T04:11:24;19.90;;;9.65;;
77350;SDS011;66420;50.246;14.320;2023-10-19T04:14:17;18.98;;;9.65;;
77350;SDS011;66420;50.246;14.320;2023-10-19T04:17:02;16.30;;;9.43;;
77350;SDS011;66420;50.246;14.320;2023-10-19T04:19:47;17.05;;;9.15;;
77350;SDS011;66420;50.246;14.320;2023-10-19T04:22:39;24.02;;;10.85;;
77350;SDS011;66420;50.246;14.320;2023-10-19T04:25:24;20.05;;;9.88;;
77350;SDS011;66420;50.246;14.320;2023-10-19T04:28:11;16.88;;;10.40;;
77350;SDS011;66420;50.246;14.320;2023-10-19T04:30:58;15.30;;;9.48;;
77350;SDS011;66420;50.246;14.320;2023-10-19T04:33:47;21.23;;;10.43;;
77350;SDS011;66420;50.246;14.320;2023-10-19T04:36:33;20.58;;;9.48;;
77350;SDS011;66420;50.246;14.320;2023-10-19T04:39:18;21.55;;;11.50;;
77350;SDS011;66420;50.246;14.320;2023-10-19T04:42:06;20.52;;;10.63;;
77350;SDS011;66420;50.246;14.320;2023-10-19T04:44:51;18.85;;;9.93;;
77350;SDS011;66420;50.246;14.320;2023-10-19T04:47:36;21.83;;;10.85;;
77350;SDS011;66420;50.246;14.320;2023-10-19T04:50:21;20.98;;;10.85;;
77350;SDS011;66420;50.246;14.320;2023-10-19T04:53:06;19.52;;;10.45;;
77350;SDS011;66420;50.246;14.320;2023-10-19T04:55:51;17.17;;;9.15;;
77350;SDS011;66420;50.246;14.320;2023-10-19T04:58:36;21.52;;;10.73;;
77350;SDS011;66420;50.246;14.320;2023-10-19T05:01:21;18.50;;;10.73;;
77350;SDS011;66420;50.246;14.320;2023-10-19T05:04:06;25.75;;;11.35;;
77350;SDS011;66420;50.246;14.320;2023-10-19T05:06:51;22.58;;;13.13;;
77350;SDS011;66420;50.246;14.320;2023-10-19T05:09:36;21.52;;;12.05;;
77350;SDS011;66420;50.246;14.320;2023-10-19T05:12:23;19.58;;;11.20;;
77350;SDS011;66420;50.246;14.320;2023-10-19T05:15:08;23.67;;;12.48;;
77350;SDS011;66420;50.246;14.320;2023-10-19T05:17:53;23.52;;;11.95;;
77350;SDS011;66420;50.246;14.320;2023-10-19T05:20:38;19.40;;;11.32;;
77350;SDS011;66420;50.246;14.320;2023-10-19T05:23:25;20.10;;;10.15;;
77350;SDS011;66420;50.246;14.320;2023-10-19T05:26:10;18.35;;;9.85;;
77350;SDS011;66420;50.246;14.320;2023-10-19T05:28:57;17.60;;;9.98;;
77350;SDS011;66420;50.246;14.320;2023-10-19T05:31:41;17.27;;;9.00;;
77350;SDS011;66420;50.246;14.320;2023-10-19T05:34:26;17.38;;;9.68;;
77350;SDS011;66420;50.246;14.320;2023-10-19T05:37:10;21.10;;;11.82;;
77350;SDS011;66420;50.246;14.320;2023-10-19T05:39:57;22.48;;;11.88;;
77350;SDS011;66420;50.246;14.320;2023-10-19T05:42:43;23.92;;;12.07;;
77350;SDS011;66420;50.246;14.320;2023-10-19T05:45:27;23.15;;;12.02;;
77350;SDS011;66420;50.246;14.320;2023-10-19T05:48:13;21.52;;;11.93;;
77350;SDS011;66420;50.246;14.320;2023-10-19T05:50:57;17.88;;;10.27;;
77350;SDS011;66420;50.246;14.320;2023-10-19T05:53:42;22.42;;;12.30;;
77350;SDS011;66420;50.246;14.320;2023-10-19T05:56:29;26.25;;;12.82;;
77350;SDS011;66420;50.246;14.320;2023-10-19T05:59:14;23.70;;;11.10;;
77350;SDS011;66420;50.246;14.320;2023-10-19T06:02:00;22.38;;;12.45;;
77350;SDS011;66420;50.246;14.320;2023-10-19T06:04:46;18.98;;;11.02;;
77350;SDS011;66420;50.246;14.320;2023-10-19T06:07:30;22.65;;;12.65;;
77350;SDS011;66420;50.246;14.320;2023-10-19T06:10:19;19.15;;;10.35;;
77350;SDS011;66420;50.246;14.320;2023-10-19T06:15:53;19.55;;;11.40;;
77350;SDS011;66420;50.246;14.320;2023-10-19T06:18:38;22.77;;;11.65;;
77350;SDS011;66420;50.246;14.320;2023-10-19T06:21:23;21.95;;;11.20;;
77350;SDS011;66420;50.246;14.320;2023-10-19T06:24:08;20.92;;;11.13;;
77350;SDS011;66420;50.246;14.320;2023-10-19T06:26:58;23.40;;;11.25;;
77350;SDS011;66420;50.246;14.320;2023-10-19T06:29:43;24.45;;;13.00;;
77350;SDS011;66420;50.246;14.320;2023-10-19T06:32:28;19.88;;;11.82;;
77350;SDS011;66420;50.246;14.320;2023-10-19T06:35:12;19.55;;;11.15;;
77350;SDS011;66420;50.246;14.320;2023-10-19T06:37:58;23.90;;;11.40;;
77350;SDS011;66420;50.246;14.320;2023-10-19T06:40:44;21.55;;;12.25;;
77350;SDS011;66420;50.246;14.320;2023-10-19T06:43:28;21.08;;;11.68;;
77350;SDS011;66420;50.246;14.320;2023-10-19T06:46:15;22.98;;;12.35;;
77350;SDS011;66420;50.246;14.320;2023-10-19T06:49:00;21.80;;;13.10;;
77350;SDS011;66420;50.246;14.320;2023-10-19T06:51:44;20.52;;;11.73;;
77350;SDS011;66420;50.246;14.320;2023-10-19T06:54:30;22.65;;;12.90;;
77350;SDS011;66420;50.246;14.320;2023-10-19T06:57:15;23.38;;;11.80;;
77350;SDS011;66420;50.246;14.320;2023-10-19T07:00:00;22.10;;;12.45;;
77350;SDS011;66420;50.246;14.320;2023-10-19T07:02:55;24.58;;;11.55;;
77350;SDS011;66420;50.246;14.320;2023-10-19T07:05:41;20.35;;;12.20;;
77350;SDS011;66420;50.246;14.320;2023-10-19T07:08:25;19.50;;;10.25;;
77350;SDS011;66420;50.246;14.320;2023-10-19T07:11:11;21.95;;;12.45;;
77350;SDS011;66420;50.246;14.320;2023-10-19T07:13:55;21.40;;;12.63;;
77350;SDS011;66420;50.246;14.320;2023-10-19T07:16:40;22.40;;;11.50;;
77350;SDS011;66420;50.246;14.320;2023-10-19T07:19:25;24.27;;;13.10;;
77350;SDS011;66420;50.246;14.320;2023-10-19T07:22:10;19.48;;;10.85;;
77350;SDS011;66420;50.246;14.320;2023-10-19T07:24:54;26.33;;;14.45;;
77350;SDS011;66420;50.246;14.320;2023-10-19T07:27:39;19.77;;;11.60;;
77350;SDS011;66420;50.246;14.320;2023-10-19T07:30:27;23.15;;;13.63;;
77350;SDS011;66420;50.246;14.320;2023-10-19T07:33:12;28.08;;;14.07;;
77350;SDS011;66420;50.246;14.320;2023-10-19T07:36:11;26.85;;;13.10;;
77350;SDS011;66420;50.246;14.320;2023-10-19T07:38:58;24.38;;;12.63;;
77350;SDS011;66420;50.246;14.320;2023-10-19T07:41:42;22.95;;;12.95;;
77350;SDS011;66420;50.246;14.320;2023-10-19T07:44:27;21.25;;;12.50;;
77350;SDS011;66420;50.246;14.320;2023-10-19T07:47:14;18.33;;;11.15;;
77350;SDS011;66420;50.246;14.320;2023-10-19T07:49:59;24.63;;;12.40;;
77350;SDS011;66420;50.246;14.320;2023-10-19T07:52:49;20.88;;;12.95;;
77350;SDS011;66420;50.246;14.320;2023-10-19T07:55:35;22.48;;;12.75;;
77350;SDS011;66420;50.246;14.320;2023-10-19T07:58:22;23.80;;;11.68;;
77350;SDS011;66420;50.246;14.320;2023-10-19T08:01:07;18.77;;;10.63;;
77350;SDS011;66420;50.246;14.320;2023-10-19T08:03:52;20.08;;;11.50;;
77350;SDS011;66420;50.246;14.320;2023-10-19T08:06:37;21.52;;;13.02;;
77350;SDS011;66420;50.246;14.320;2023-10-19T08:09:22;23.45;;;13.77;;
77350;SDS011;66420;50.246;14.320;2023-10-19T08:12:07;24.65;;;12.57;;
77350;SDS011;66420;50.246;14.320;2023-10-19T08:14:53;23.27;;;13.55;;
77350;SDS011;66420;50.246;14.320;2023-10-19T08:17:44;21.17;;;12.80;;
77350;SDS011;66420;50.246;14.320;2023-10-19T08:20:34;26.33;;;14.93;;
77350;SDS011;66420;50.246;14.320;2023-10-19T08:23:21;21.77;;;12.75;;
77350;SDS011;66420;50.246;14.320;2023-10-19T08:26:11;25.17;;;13.98;;
77350;SDS011;66420;50.246;14.320;2023-10-19T08:28:56;24.10;;;13.00;;
77350;SDS011;66420;50.246;14.320;2023-10-19T08:31:43;24.63;;;14.40;;
77350;SDS011;66420;50.246;14.320;2023-10-19T08:34:35;25.08;;;14.25;;
77350;SDS011;66420;50.246;14.320;2023-10-19T08:37:20;31.73;;;15.13;;
77350;SDS011;66420;50.246;14.320;2023-10-19T08:40:06;27.55;;;15.18;;
77350;SDS011;66420;50.246;14.320;2023-10-19T08:42:52;22.08;;;11.82;;
77350;SDS011;66420;50.246;14.320;2023-10-19T08:45:37;27.08;;;13.15;;
77350;SDS011;66420;50.246;14.320;2023-10-19T08:48:22;25.83;;;15.02;;
77350;SDS011;66420;50.246;14.320;2023-10-19T08:51:10;26.98;;;14.75;;
77350;SDS011;66420;50.246;14.320;2023-10-19T08:53:55;25.25;;;14.10;;
77350;SDS011;66420;50.246;14.320;2023-10-19T08:56:41;28.58;;;14.30;;
77350;SDS011;66420;50.246;14.320;2023-10-19T08:59:26;27.77;;;14.40;;
77350;SDS011;66420;50.246;14.320;2023-10-19T09:02:12;27.50;;;14.60;;
77350;SDS011;66420;50.246;14.320;2023-10-19T09:04:57;27.27;;;13.43;;
77350;SDS011;66420;50.246;14.320;2023-10-19T09:07:44;27.85;;;13.45;;
77350;SDS011;66420;50.246;14.320;2023-10-19T09:10:31;27.58;;;15.48;;
77350;SDS011;66420;50.246;14.320;2023-10-19T09:13:20;25.13;;;14.63;;
77350;SDS011;66420;50.246;14.320;2023-10-19T09:16:07;27.60;;;16.05;;
77350;SDS011;66420;50.246;14.320;2023-10-19T09:18:51;28.42;;;15.15;;
77350;SDS011;66420;50.246;14.320;2023-10-19T09:21:36;27.48;;;15.40;;
77350;SDS011;66420;50.246;14.320;2023-10-19T09:24:23;32.72;;;14.82;;
77350;SDS011;66420;50.246;14.320;2023-10-19T09:27:09;29.83;;;16.15;;
77350;SDS011;66420;50.246;14.320;2023-10-19T09:29:54;28.27;;;15.40;;
77350;SDS011;66420;50.246;14.320;2023-10-19T09:32:39;27.83;;;15.27;;
77350;SDS011;66420;50.246;14.320;2023-10-19T09:35:26;31.13;;;16.70;;
77350;SDS011;66420;50.246;14.320;2023-10-19T09:38:11;29.77;;;15.73;;
77350;SDS011;66420;50.246;14.320;2023-10-19T09:40:56;29.88;;;15.68;;
77350;SDS011;66420;50.246;14.320;2023-10-19T09:43:44;27.05;;;15.63;;
77350;SDS011;66420;50.246;14.320;2023-10-19T09:46:31;27.13;;;16.25;;
77350;SDS011;66420;50.246;14.320;2023-10-19T09:49:17;29.02;;;15.70;;
77350;SDS011;66420;50.246;14.320;2023-10-19T09:52:03;30.10;;;15.60;;
77350;SDS011;66420;50.246;14.320;2023-10-19T09:57:48;34.58;;;16.48;;
77350;SDS011;66420;50.246;14.320;2023-10-19T10:00:36;28.88;;;14.50;;
77350;SDS011;66420;50.246;14.320;2023-10-19T10:06:30;26.33;;;15.77;;
77350;SDS011;66420;50.246;14.320;2023-10-19T10:09:36;26.52;;;13.73;;
77350;SDS011;66420;50.246;14.320;2023-10-19T10:12:24;25.52;;;14.93;;
77350;SDS011;66420;50.246;14.320;2023-10-19T10:15:11;19.50;;;12.18;;
77350;SDS011;66420;50.246;14.320;2023-10-19T10:17:56;23.08;;;13.73;;
77350;SDS011;66420;50.246;14.320;2023-10-19T10:20:43;21.73;;;12.45;;
77350;SDS011;66420;50.246;14.320;2023-10-19T10:23:28;22.40;;;13.10;;
77350;SDS011;66420;50.246;14.320;2023-10-19T10:26:17;22.15;;;12.48;;
77350;SDS011;66420;50.246;14.320;2023-10-19T10:32:07;20.58;;;12.95;;
77350;SDS011;66420;50.246;14.320;2023-10-19T10:34:54;20.67;;;12.23;;
77350;SDS011;66420;50.246;14.320;2023-10-19T10:37:39;23.77;;;13.15;;
77350;SDS011;66420;50.246;14.320;2023-10-19T10:40:44;22.17;;;13.48;;
77350;SDS011;66420;50.246;14.320;2023-10-19T10:43:31;21.88;;;12.18;;
77350;SDS011;66420;50.246;14.320;2023-10-19T10:46:16;23.38;;;13.95;;
77350;SDS011;66420;50.246;14.320;2023-10-19T10:49:01;24.65;;;13.77;;
77350;SDS011;66420;50.246;14.320;2023-10-19T10:51:53;23.98;;;12.25;;
77350;SDS011;66420;50.246;14.320;2023-10-19T10:54:41;25.10;;;13.75;;
77350;SDS011;66420;50.246;14.320;2023-10-19T10:57:32;22.92;;;13.43;;
77350;SDS011;66420;50.246;14.320;2023-10-19T11:00:17;24.58;;;13.90;;
77350;SDS011;66420;50.246;14.320;2023-10-19T11:03:10;21.02;;;12.18;;
77350;SDS011;66420;50.246;14.320;2023-10-19T11:06:02;20.27;;;12.70;;
77350;SDS011;66420;50.246;14.320;2023-10-19T11:08:47;23.88;;;13.18;;
77350;SDS011;66420;50.246;14.320;2023-10-19T11:11:37;25.55;;;14.15;;
77350;SDS011;66420;50.246;14.320;2023-10-19T11:14:23;26.08;;;14.57;;
77350;SDS011;66420;50.246;14.320;2023-10-19T11:17:12;22.08;;;13.75;;
77350;SDS011;66420;50.246;14.320;2023-10-19T11:19:59;23.33;;;12.82;;
77350;SDS011;66420;50.246;14.320;2023-10-19T11:22:48;23.70;;;13.73;;
77350;SDS011;66420;50.246;14.320;2023-10-19T11:25:34;23.67;;;12.77;;
77350;SDS011;66420;50.246;14.320;2023-10-19T11:28:19;22.08;;;13.02;;
77350;SDS011;66420;50.246;14.320;2023-10-19T11:34:22;25.27;;;14.15;;
77350;SDS011;66420;50.246;14.320;2023-10-19T11:37:06;24.48;;;13.52;;
77350;SDS011;66420;50.246;14.320;2023-10-19T11:39:52;25.15;;;14.48;;
77350;SDS011;66420;50.246;14.320;2023-10-19T11:42:37;24.88;;;14.98;;
77350;SDS011;66420;50.246;14.320;2023-10-19T11:45:22;22.95;;;15.05;;
77350;SDS011;66420;50.246;14.320;2023-10-19T11:48:10;25.40;;;14.85;;
77350;SDS011;66420;50.246;14.320;2023-10-19T11:50:55;28.25;;;15.13;;
77350;SDS011;66420;50.246;14.320;2023-10-19T11:53:40;25.25;;;14.93;;
77350;SDS011;66420;50.246;14.320;2023-10-19T11:56:27;25.70;;;15.65;;
77350;SDS011;66420;50.246;14.320;2023-10-19T11:59:12;26.25;;;14.45;;
77350;SDS011;66420;50.246;14.320;2023-10-19T12:01:56;26.58;;;13.93;;
77350;SDS011;66420;50.246;14.320;2023-10-19T12:04:43;23.92;;;14.95;;
77350;SDS011;66420;50.246;14.320;2023-10-19T12:07:29;23.35;;;14.35;;
77350;SDS011;66420;50.246;14.320;2023-10-19T12:10:13;25.95;;;14.98;;
77350;SDS011;66420;50.246;14.320;2023-10-19T12:12:58;23.23;;;14.18;;
77350;SDS011;66420;50.246;14.320;2023-10-19T12:15:42;26.50;;;14.30;;
77350;SDS011;66420;50.246;14.320;2023-10-19T12:18:35;30.42;;;17.02;;
77350;SDS011;66420;50.246;14.320;2023-10-19T12:21:19;27.70;;;16.27;;
77350;SDS011;66420;50.246;14.320;2023-10-19T12:24:12;25.45;;;14.73;;
77350;SDS011;66420;50.246;14.320;2023-10-19T12:26:56;23.98;;;15.23;;
77350;SDS011;66420;50.246;14.320;2023-10-19T12:29:41;23.35;;;14.82;;
77350;SDS011;66420;50.246;14.320;2023-10-19T12:32:26;29.00;;;16.67;;
77350;SDS011;66420;50.246;14.320;2023-10-19T12:35:10;30.48;;;15.90;;
77350;SDS011;66420;50.246;14.320;2023-10-19T12:37:56;26.60;;;15.25;;
77350;SDS011;66420;50.246;14.320;2023-10-19T12:40:41;25.73;;;15.32;;
77350;SDS011;66420;50.246;14.320;2023-10-19T12:43:27;32.97;;;16.17;;
77350;SDS011;66420;50.246;14.320;2023-10-19T12:46:14;26.38;;;15.50;;
77350;SDS011;66420;50.246;14.320;2023-10-19T12:49:00;23.35;;;13.32;;
77350;SDS011;66420;50.246;14.320;2023-10-19T12:51:45;26.10;;;13.95;;
77350;SDS011;66420;50.246;14.320;2023-10-19T12:54:30;28.10;;;15.20;;
77350;SDS011;66420;50.246;14.320;2023-10-19T12:57:15;22.38;;;13.82;;
77350;SDS011;66420;50.246;14.320;2023-10-19T13:00:00;23.23;;;15.20;;
77350;SDS011;66420;50.246;14.320;2023-10-19T13:03:06;27.80;;;14.60;;
77350;SDS011;66420;50.246;14.320;2023-10-19T13:05:51;27.08;;;14.85;;
77350;SDS011;66420;50.246;14.320;2023-10-19T13:08:37;22.65;;;13.70;;
77350;SDS011;66420;50.246;14.320;2023-10-19T13:11:25;22.75;;;13.50;;
77350;SDS011;66420;50.246;14.320;2023-10-19T13:14:11;25.50;;;15.07;;
77350;SDS011;66420;50.246;14.320;2023-10-19T13:16:56;24.13;;;13.85;;
77350;SDS011;66420;50.246;14.320;2023-10-19T13:19:41;24.85;;;14.90;;
77350;SDS011;66420;50.246;14.320;2023-10-19T13:22:26;30.25;;;14.98;;
77350;SDS011;66420;50.246;14.320;2023-10-19T13:25:11;28.65;;;14.85;;
77350;SDS011;66420;50.246;14.320;2023-10-19T13:28:01;25.73;;;15.70;;
77350;SDS011;66420;50.246;14.320;2023-10-19T13:30:50;24.48;;;14.43;;
77350;SDS011;66420;50.246;14.320;2023-10-19T13:33:37;27.13;;;16.00;;
77350;SDS011;66420;50.246;14.320;2023-10-19T13:36:22;22.40;;;13.35;;
77350;SDS011;66420;50.246;14.320;2023-10-19T13:39:08;25.27;;;13.95;;
77350;SDS011;66420;50.246;14.320;2023-10-19T13:41:56;27.38;;;14.43;;
77350;SDS011;66420;50.246;14.320;2023-10-19T13:44:42;27.85;;;14.88;;
77350;SDS011;66420;50.246;14.320;2023-10-19T13:47:27;25.30;;;13.15;;
77350;SDS011;66420;50.246;14.320;2023-10-19T13:50:12;25.95;;;16.17;;
77350;SDS011;66420;50.246;14.320;2023-10-19T13:52:57;23.98;;;15.55;;
77350;SDS011;66420;50.246;14.320;2023-10-19T13:55:44;27.23;;;16.50;;
77350;SDS011;66420;50.246;14.320;2023-10-19T13:58:30;28.30;;;17.42;;
77350;SDS011;66420;50.246;14.320;2023-10-19T14:01:17;27.17;;;17.05;;
77350;SDS011;66420;50.246;14.320;2023-10-19T14:04:02;27.35;;;17.23;;
77350;SDS011;66420;50.246;14.320;2023-10-19T14:06:47;31.48;;;16.02;;
77350;SDS011;66420;50.246;14.320;2023-10-19T14:09:33;28.83;;;17.95;;
77350;SDS011;66420;50.246;14.320;2023-10-19T14:12:20;29.30;;;15.90;;
77350;SDS011;66420;50.246;14.320;2023-10-19T14:15:04;27.35;;;15.95;;
77350;SDS011;66420;50.246;14.320;2023-10-19T14:17:50;28.45;;;17.70;;
77350;SDS011;66420;50.246;14.320;2023-10-19T14:20:35;28.08;;;16.08;;
77350;SDS011;66420;50.246;14.320;2023-10-19T14:23:22;32.60;;;16.73;;
77350;SDS011;66420;50.246;14.320;2023-10-19T14:26:09;26.50;;;15.80;;
77350;SDS011;66420;50.246;14.320;2023-10-19T14:28:54;29.23;;;17.30;;
77350;SDS011;66420;50.246;14.320;2023-10-19T14:31:39;30.52;;;16.48;;
77350;SDS011;66420;50.246;14.320;2023-10-19T14:34:25;31.45;;;17.98;;
77350;SDS011;66420;50.246;14.320;2023-10-19T14:37:13;29.10;;;18.00;;
77350;SDS011;66420;50.246;14.320;2023-10-19T14:39:57;31.42;;;16.67;;
77350;SDS011;66420;50.246;14.320;2023-10-19T14:42:43;30.70;;;18.63;;
77350;SDS011;66420;50.246;14.320;2023-10-19T14:45:28;32.53;;;18.55;;
77350;SDS011;66420;50.246;14.320;2023-10-19T14:48:13;31.48;;;17.52;;
77350;SDS011;66420;50.246;14.320;2023-10-19T14:50:59;28.58;;;16.77;;
77350;SDS011;66420;50.246;14.320;2023-10-19T14:53:44;30.67;;;18.40;;
77350;SDS011;66420;50.246;14.320;2023-10-19T14:56:30;29.75;;;17.25;;
77350;SDS011;66420;50.246;14.320;2023-10-19T14:59:15;28.77;;;16.13;;
77350;SDS011;66420;50.246;14.320;2023-10-19T15:01:59;32.75;;;19.40;;
77350;SDS011;66420;50.246;14.320;2023-10-19T15:04:47;31.75;;;18.80;;
77350;SDS011;66420;50.246;14.320;2023-10-19T15:07:33;34.08;;;18.50;;
77350;SDS011;66420;50.246;14.320;2023-10-19T15:10:18;31.40;;;18.65;;
77350;SDS011;66420;50.246;14.320;2023-10-19T15:13:04;34.47;;;20.23;;
77350;SDS011;66420;50.246;14.320;2023-10-19T15:15:49;33.92;;;19.55;;
77350;SDS011;66420;50.246;14.320;2023-10-19T15:18:35;37.55;;;17.90;;
77350;SDS011;66420;50.246;14.320;2023-10-19T15:21:20;30.63;;;19.10;;
77350;SDS011;66420;50.246;14.320;2023-10-19T15:24:06;32.38;;;19.48;;
77350;SDS011;66420;50.246;14.320;2023-10-19T15:26:51;32.53;;;19.73;;
77350;SDS011;66420;50.246;14.320;2023-10-19T15:29:36;35.55;;;21.75;;
77350;SDS011;66420;50.246;14.320;2023-10-19T15:32:21;36.90;;;19.52;;
77350;SDS011;66420;50.246;14.320;2023-10-19T15:35:13;33.92;;;20.42;;
77350;SDS011;66420;50.246;14.320;2023-10-19T15:38:00;36.45;;;20.60;;
77350;SDS011;66420;50.246;14.320;2023-10-19T15:40:45;38.45;;;20.60;;
77350;SDS011;66420;50.246;14.320;2023-10-19T15:43:29;34.72;;;21.60;;
77350;SDS011;66420;50.246;14.320;2023-10-19T15:46:15;36.55;;;20.48;;
77350;SDS011;66420;50.246;14.320;2023-10-19T15:49:01;35.92;;;22.77;;
77350;SDS011;66420;50.246;14.320;2023-10-19T15:51:46;33.50;;;19.85;;
77350;SDS011;66420;50.246;14.320;2023-10-19T15:54:31;38.42;;;21.00;;
77350;SDS011;66420;50.246;14.320;2023-10-19T15:57:16;39.20;;;21.73;;
77350;SDS011;66420;50.246;14.320;2023-10-19T16:00:02;46.22;;;23.35;;
77350;SDS011;66420;50.246;14.320;2023-10-19T16:02:47;37.03;;;19.85;;
77350;SDS011;66420;50.246;14.320;2023-10-19T16:05:32;37.97;;;21.25;;
77350;SDS011;66420;50.246;14.320;2023-10-19T16:08:17;47.45;;;24.05;;
77350;SDS011;66420;50.246;14.320;2023-10-19T16:11:02;40.33;;;22.13;;
77350;SDS011;66420;50.246;14.320;2023-10-19T16:13:48;38.28;;;22.85;;
77350;SDS011;66420;50.246;14.320;2023-10-19T16:16:33;37.15;;;21.17;;
77350;SDS011;66420;50.246;14.320;2023-10-19T16:19:18;37.15;;;20.50;;
77350;SDS011;66420;50.246;14.320;2023-10-19T16:22:03;38.63;;;22.85;;